<?xml version="1.0" encoding="UTF-8" standalone="no" ?>
<gpx xmlns="http://www.topografix.com/GPX/1/1" creator="MapSource 6.16.3" version="1.1" xmlns:xsi="http://www.w3.org/2001/XMLSchema-instance" xsi:schemaLocation="http://www.topografix.com/GPX/1/1 http://www.topografix.com/GPX/1/1/gpx.xsd">

  <metadata>
    <link href="http://www.garmin.com">
      <text>Garmin International</text>
    </link>
    <time>2019-09-23T06:26:11Z</time>
    <bounds maxlat="48.231744524091482" maxlon="10.781543059274554" minlat="48.207343714311719" minlon="10.742245092988014"/>
  </metadata>

  <trk>
    <name>10 km Großaitingen</name>
    <link href="https://www.gpsies.com/map.do?fileId=jxdcerooxrfgyvcq"/>
    <link href="https://www.gpsies.com/charts/jx/map/jxdcerooxrfgyvcq_map.png"/>
    <link href="https://www.gpsies.com/charts/jx/mapThumb/jxdcerooxrfgyvcq_mapThumb.png"/>
    <link href="https://www.gpsies.com/charts/jx/tab/jxdcerooxrfgyvcq_tab.png"/>
    <extensions>
      <gpxx:TrackExtension xmlns:gpxx="http://www.garmin.com/xmlschemas/GpxExtensions/v3">
        <gpxx:DisplayColor>Yellow</gpxx:DisplayColor>
      </gpxx:TrackExtension>
    </extensions>
    <trkseg>
      <trkpt lat="48.227420803159475" lon="10.780766308307648">
        <ele>535</ele>
        <time>2010-01-01T00:00:00Z</time>
      </trkpt>
      <trkpt lat="48.227426838129759" lon="10.780692463740706">
        <ele>535</ele>
        <time>2010-01-01T00:00:01Z</time>
      </trkpt>
      <trkpt lat="48.227669661864638" lon="10.780815258622169">
        <ele>535</ele>
        <time>2010-01-01T00:00:12Z</time>
      </trkpt>
      <trkpt lat="48.22787837125361" lon="10.78093009069562">
        <ele>535</ele>
        <time>2010-01-01T00:00:21Z</time>
      </trkpt>
      <trkpt lat="48.228039806708694" lon="10.781052298843861">
        <ele>536</ele>
        <time>2010-01-01T00:00:28Z</time>
      </trkpt>
      <trkpt lat="48.228322360664606" lon="10.781270563602448">
        <ele>540</ele>
        <time>2010-01-01T00:00:41Z</time>
      </trkpt>
      <trkpt lat="48.228638609871268" lon="10.781543059274554">
        <ele>540</ele>
        <time>2010-01-01T00:00:55Z</time>
      </trkpt>
      <trkpt lat="48.228671718388796" lon="10.781464604660869">
        <ele>540</ele>
        <time>2010-01-01T00:00:58Z</time>
      </trkpt>
      <trkpt lat="48.228516820818186" lon="10.781333260238171">
        <ele>540</ele>
        <time>2010-01-01T00:01:05Z</time>
      </trkpt>
      <trkpt lat="48.228497626259923" lon="10.781312473118305">
        <ele>540</ele>
        <time>2010-01-01T00:01:06Z</time>
      </trkpt>
      <trkpt lat="48.228493602946401" lon="10.781293697655201">
        <ele>540</ele>
        <time>2010-01-01T00:01:06Z</time>
      </trkpt>
      <trkpt lat="48.228586809709668" lon="10.781010473147035">
        <ele>536</ele>
        <time>2010-01-01T00:01:15Z</time>
      </trkpt>
      <trkpt lat="48.22864162735641" lon="10.780800590291619">
        <ele>536</ele>
        <time>2010-01-01T00:01:21Z</time>
      </trkpt>
      <trkpt lat="48.22866509668529" lon="10.780697911977768">
        <ele>536</ele>
        <time>2010-01-01T00:01:24Z</time>
      </trkpt>
      <trkpt lat="48.228714969009161" lon="10.780462464317679">
        <ele>536</ele>
        <time>2010-01-01T00:01:30Z</time>
      </trkpt>
      <trkpt lat="48.228755537420511" lon="10.780122829601169">
        <ele>531</ele>
        <time>2010-01-01T00:01:39Z</time>
      </trkpt>
      <trkpt lat="48.228786299005151" lon="10.779801718890667">
        <ele>531</ele>
        <time>2010-01-01T00:01:48Z</time>
      </trkpt>
      <trkpt lat="48.228830806910992" lon="10.779582532122731">
        <ele>531</ele>
        <time>2010-01-01T00:01:54Z</time>
      </trkpt>
      <trkpt lat="48.229009676724672" lon="10.779093112796545">
        <ele>531</ele>
        <time>2010-01-01T00:02:09Z</time>
      </trkpt>
      <trkpt lat="48.229331960901618" lon="10.778244277462363">
        <ele>529</ele>
        <time>2010-01-01T00:02:35Z</time>
      </trkpt>
      <trkpt lat="48.229514770209789" lon="10.777723509818316">
        <ele>530</ele>
        <time>2010-01-01T00:02:51Z</time>
      </trkpt>
      <trkpt lat="48.229546537622809" lon="10.777557380497456">
        <ele>530</ele>
        <time>2010-01-01T00:02:55Z</time>
      </trkpt>
      <trkpt lat="48.229573862627149" lon="10.777373816817999">
        <ele>530</ele>
        <time>2010-01-01T00:03:00Z</time>
      </trkpt>
      <trkpt lat="48.229574030265212" lon="10.777270132675767">
        <ele>530</ele>
        <time>2010-01-01T00:03:03Z</time>
      </trkpt>
      <trkpt lat="48.22955533862114" lon="10.777116660028696">
        <ele>530</ele>
        <time>2010-01-01T00:03:07Z</time>
      </trkpt>
      <trkpt lat="48.229559697210789" lon="10.776991099119186">
        <ele>530</ele>
        <time>2010-01-01T00:03:11Z</time>
      </trkpt>
      <trkpt lat="48.229616275057197" lon="10.77666386961937">
        <ele>528</ele>
        <time>2010-01-01T00:03:20Z</time>
      </trkpt>
      <trkpt lat="48.229636894538999" lon="10.776506038382649">
        <ele>528</ele>
        <time>2010-01-01T00:03:24Z</time>
      </trkpt>
      <trkpt lat="48.229644186794758" lon="10.776389865204692">
        <ele>528</ele>
        <time>2010-01-01T00:03:27Z</time>
      </trkpt>
      <trkpt lat="48.229644689708948" lon="10.775926262140274">
        <ele>527</ele>
        <time>2010-01-01T00:03:39Z</time>
      </trkpt>
      <trkpt lat="48.22965944185853" lon="10.775509513914585">
        <ele>527</ele>
        <time>2010-01-01T00:03:51Z</time>
      </trkpt>
      <trkpt lat="48.229659274220467" lon="10.77543986029923">
        <ele>527</ele>
        <time>2010-01-01T00:03:52Z</time>
      </trkpt>
      <trkpt lat="48.229649132117629" lon="10.775392083451152">
        <ele>528</ele>
        <time>2010-01-01T00:03:54Z</time>
      </trkpt>
      <trkpt lat="48.229637481272221" lon="10.775355203077197">
        <ele>528</ele>
        <time>2010-01-01T00:03:55Z</time>
      </trkpt>
      <trkpt lat="48.229617113247514" lon="10.775326872244477">
        <ele>528</ele>
        <time>2010-01-01T00:03:56Z</time>
      </trkpt>
      <trkpt lat="48.229561876505613" lon="10.775285717099905">
        <ele>528</ele>
        <time>2010-01-01T00:03:58Z</time>
      </trkpt>
      <trkpt lat="48.22927881963551" lon="10.77517063356936">
        <ele>528</ele>
        <time>2010-01-01T00:04:10Z</time>
      </trkpt>
      <trkpt lat="48.229239592328668" lon="10.775140291079879">
        <ele>528</ele>
        <time>2010-01-01T00:04:12Z</time>
      </trkpt>
      <trkpt lat="48.229212183505297" lon="10.775088323280215">
        <ele>528</ele>
        <time>2010-01-01T00:04:14Z</time>
      </trkpt>
      <trkpt lat="48.229200700297952" lon="10.775027722120285">
        <ele>528</ele>
        <time>2010-01-01T00:04:15Z</time>
      </trkpt>
      <trkpt lat="48.229199610650539" lon="10.774854887276888">
        <ele>528</ele>
        <time>2010-01-01T00:04:20Z</time>
      </trkpt>
      <trkpt lat="48.229201035574079" lon="10.773888286203146">
        <ele>528</ele>
        <time>2010-01-01T00:04:46Z</time>
      </trkpt>
      <trkpt lat="48.229207573458552" lon="10.773420995101333">
        <ele>527</ele>
        <time>2010-01-01T00:04:58Z</time>
      </trkpt>
      <trkpt lat="48.229207573458552" lon="10.772741893306375">
        <ele>528</ele>
        <time>2010-01-01T00:05:16Z</time>
      </trkpt>
      <trkpt lat="48.229235233739018" lon="10.772089529782534">
        <ele>528</ele>
        <time>2010-01-01T00:05:34Z</time>
      </trkpt>
      <trkpt lat="48.229225091636181" lon="10.771367512643337">
        <ele>528</ele>
        <time>2010-01-01T00:05:53Z</time>
      </trkpt>
      <trkpt lat="48.229211764410138" lon="10.771153522655368">
        <ele>527</ele>
        <time>2010-01-01T00:05:59Z</time>
      </trkpt>
      <trkpt lat="48.229184858500957" lon="10.770540134981275">
        <ele>527</ele>
        <time>2010-01-01T00:06:15Z</time>
      </trkpt>
      <trkpt lat="48.229177817702293" lon="10.769924065098166">
        <ele>527</ele>
        <time>2010-01-01T00:06:32Z</time>
      </trkpt>
      <trkpt lat="48.229167675599456" lon="10.769627261906862">
        <ele>527</ele>
        <time>2010-01-01T00:06:40Z</time>
      </trkpt>
      <trkpt lat="48.229167675599456" lon="10.769465826451778">
        <ele>527</ele>
        <time>2010-01-01T00:06:44Z</time>
      </trkpt>
      <trkpt lat="48.229169435799122" lon="10.769287208095193">
        <ele>527</ele>
        <time>2010-01-01T00:06:49Z</time>
      </trkpt>
      <trkpt lat="48.229169519618154" lon="10.76921571046114">
        <ele>527</ele>
        <time>2010-01-01T00:06:51Z</time>
      </trkpt>
      <trkpt lat="48.229165328666568" lon="10.769172376021743">
        <ele>527</ele>
        <time>2010-01-01T00:06:52Z</time>
      </trkpt>
      <trkpt lat="48.229155270382762" lon="10.769129209220409">
        <ele>527</ele>
        <time>2010-01-01T00:06:53Z</time>
      </trkpt>
      <trkpt lat="48.229139428585768" lon="10.769094675779343">
        <ele>527</ele>
        <time>2010-01-01T00:06:54Z</time>
      </trkpt>
      <trkpt lat="48.229125011712313" lon="10.769062405452132">
        <ele>527</ele>
        <time>2010-01-01T00:06:55Z</time>
      </trkpt>
      <trkpt lat="48.229109169915318" lon="10.769043127074838">
        <ele>527</ele>
        <time>2010-01-01T00:06:56Z</time>
      </trkpt>
      <trkpt lat="48.229080336168408" lon="10.769030302762985">
        <ele>527</ele>
        <time>2010-01-01T00:06:57Z</time>
      </trkpt>
      <trkpt lat="48.229031134396791" lon="10.769022088497877">
        <ele>527</ele>
        <time>2010-01-01T00:06:59Z</time>
      </trkpt>
      <trkpt lat="48.228869363665581" lon="10.769025525078177">
        <ele>527</ele>
        <time>2010-01-01T00:07:06Z</time>
      </trkpt>
      <trkpt lat="48.228685967624187" lon="10.769027872011065">
        <ele>529</ele>
        <time>2010-01-01T00:07:13Z</time>
      </trkpt>
      <trkpt lat="48.228657133877277" lon="10.769019406288862">
        <ele>529</ele>
        <time>2010-01-01T00:07:14Z</time>
      </trkpt>
      <trkpt lat="48.228648416697979" lon="10.769004235044122">
        <ele>529</ele>
        <time>2010-01-01T00:07:15Z</time>
      </trkpt>
      <trkpt lat="48.22864405810833" lon="10.768971797078848">
        <ele>529</ele>
        <time>2010-01-01T00:07:15Z</time>
      </trkpt>
      <trkpt lat="48.228657301515341" lon="10.768364276736975">
        <ele>531</ele>
        <time>2010-01-01T00:07:32Z</time>
      </trkpt>
      <trkpt lat="48.228660319000483" lon="10.767864799126983">
        <ele>530</ele>
        <time>2010-01-01T00:07:45Z</time>
      </trkpt>
      <trkpt lat="48.228661827743053" lon="10.767692299559712">
        <ele>530</ele>
        <time>2010-01-01T00:07:50Z</time>
      </trkpt>
      <trkpt lat="48.228664677590132" lon="10.767627507448196">
        <ele>530</ele>
        <time>2010-01-01T00:07:51Z</time>
      </trkpt>
      <trkpt lat="48.228671886026859" lon="10.767588699236512">
        <ele>530</ele>
        <time>2010-01-01T00:07:52Z</time>
      </trkpt>
      <trkpt lat="48.228686219081283" lon="10.767571264877915">
        <ele>530</ele>
        <time>2010-01-01T00:07:53Z</time>
      </trkpt>
      <trkpt lat="48.22871346026659" lon="10.767562631517649">
        <ele>530</ele>
        <time>2010-01-01T00:07:54Z</time>
      </trkpt>
      <trkpt lat="48.22874522767961" lon="10.767571097239852">
        <ele>530</ele>
        <time>2010-01-01T00:07:56Z</time>
      </trkpt>
      <trkpt lat="48.229105481877923" lon="10.767746698111296">
        <ele>529</ele>
        <time>2010-01-01T00:08:11Z</time>
      </trkpt>
      <trkpt lat="48.229204723611474" lon="10.767789613455534">
        <ele>529</ele>
        <time>2010-01-01T00:08:15Z</time>
      </trkpt>
      <trkpt lat="48.229256607592106" lon="10.76779380440712">
        <ele>529</ele>
        <time>2010-01-01T00:08:17Z</time>
      </trkpt>
      <trkpt lat="48.229305725544691" lon="10.767798079177737">
        <ele>529</ele>
        <time>2010-01-01T00:08:19Z</time>
      </trkpt>
      <trkpt lat="48.229373283684254" lon="10.767809394747019">
        <ele>529</ele>
        <time>2010-01-01T00:08:22Z</time>
      </trkpt>
      <trkpt lat="48.229419300332665" lon="10.767829176038504">
        <ele>529</ele>
        <time>2010-01-01T00:08:24Z</time>
      </trkpt>
      <trkpt lat="48.229589872062206" lon="10.767953479662538">
        <ele>531</ele>
        <time>2010-01-01T00:08:31Z</time>
      </trkpt>
      <trkpt lat="48.229713086038828" lon="10.768104773014784">
        <ele>531</ele>
        <time>2010-01-01T00:08:37Z</time>
      </trkpt>
      <trkpt lat="48.229823308065534" lon="10.768243577331305">
        <ele>531</ele>
        <time>2010-01-01T00:08:43Z</time>
      </trkpt>
      <trkpt lat="48.230036962777376" lon="10.768506936728954">
        <ele>531</ele>
        <time>2010-01-01T00:08:54Z</time>
      </trkpt>
      <trkpt lat="48.230238212272525" lon="10.768758729100227">
        <ele>529</ele>
        <time>2010-01-01T00:09:05Z</time>
      </trkpt>
      <trkpt lat="48.230405766516924" lon="10.768955703824759">
        <ele>529</ele>
        <time>2010-01-01T00:09:13Z</time>
      </trkpt>
      <trkpt lat="48.230666359886527" lon="10.769266337156296">
        <ele>530</ele>
        <time>2010-01-01T00:09:27Z</time>
      </trkpt>
      <trkpt lat="48.230885965749621" lon="10.769552662968636">
        <ele>530</ele>
        <time>2010-01-01T00:09:38Z</time>
      </trkpt>
      <trkpt lat="48.2310925796628" lon="10.769793139770627">
        <ele>527</ele>
        <time>2010-01-01T00:09:49Z</time>
      </trkpt>
      <trkpt lat="48.231228366494179" lon="10.770005704835057">
        <ele>527</ele>
        <time>2010-01-01T00:09:57Z</time>
      </trkpt>
      <trkpt lat="48.231318891048431" lon="10.770176695659757">
        <ele>526</ele>
        <time>2010-01-01T00:10:02Z</time>
      </trkpt>
      <trkpt lat="48.231381503865123" lon="10.770303597673774">
        <ele>526</ele>
        <time>2010-01-01T00:10:07Z</time>
      </trkpt>
      <trkpt lat="48.231462808325887" lon="10.770546086132526">
        <ele>527</ele>
        <time>2010-01-01T00:10:14Z</time>
      </trkpt>
      <trkpt lat="48.231552829965949" lon="10.770806008949876">
        <ele>527</ele>
        <time>2010-01-01T00:10:22Z</time>
      </trkpt>
      <trkpt lat="48.231598092243075" lon="10.770941963419318">
        <ele>527</ele>
        <time>2010-01-01T00:10:26Z</time>
      </trkpt>
      <trkpt lat="48.231626087799668" lon="10.771027375012636">
        <ele>527</ele>
        <time>2010-01-01T00:10:28Z</time>
      </trkpt>
      <trkpt lat="48.231646539643407" lon="10.771066937595606">
        <ele>527</ele>
        <time>2010-01-01T00:10:30Z</time>
      </trkpt>
      <trkpt lat="48.231671266257763" lon="10.77108227647841">
        <ele>527</ele>
        <time>2010-01-01T00:10:31Z</time>
      </trkpt>
      <trkpt lat="48.23169456794858" lon="10.771073726937175">
        <ele>527</ele>
        <time>2010-01-01T00:10:32Z</time>
      </trkpt>
      <trkpt lat="48.23170923627913" lon="10.771045312285423">
        <ele>527</ele>
        <time>2010-01-01T00:10:33Z</time>
      </trkpt>
      <trkpt lat="48.23171803727746" lon="10.770940203219652">
        <ele>527</ele>
        <time>2010-01-01T00:10:35Z</time>
      </trkpt>
      <trkpt lat="48.23173563927412" lon="10.770559497177601">
        <ele>527</ele>
        <time>2010-01-01T00:10:46Z</time>
      </trkpt>
      <trkpt lat="48.231744524091482" lon="10.770397307351232">
        <ele>526</ele>
        <time>2010-01-01T00:10:50Z</time>
      </trkpt>
      <trkpt lat="48.231725497171283" lon="10.770239308476448">
        <ele>526</ele>
        <time>2010-01-01T00:10:54Z</time>
      </trkpt>
      <trkpt lat="48.231700686737895" lon="10.770127410069108">
        <ele>526</ele>
        <time>2010-01-01T00:10:57Z</time>
      </trkpt>
      <trkpt lat="48.231604294851422" lon="10.76986413449049">
        <ele>526</ele>
        <time>2010-01-01T00:11:05Z</time>
      </trkpt>
      <trkpt lat="48.231499101966619" lon="10.769618293270469">
        <ele>526</ele>
        <time>2010-01-01T00:11:13Z</time>
      </trkpt>
      <trkpt lat="48.231478566303849" lon="10.769587615504861">
        <ele>526</ele>
        <time>2010-01-01T00:11:14Z</time>
      </trkpt>
      <trkpt lat="48.231446463614702" lon="10.769554674625397">
        <ele>524</ele>
        <time>2010-01-01T00:11:16Z</time>
      </trkpt>
      <trkpt lat="48.231421737000346" lon="10.76951083727181">
        <ele>524</ele>
        <time>2010-01-01T00:11:17Z</time>
      </trkpt>
      <trkpt lat="48.231285782530904" lon="10.769161898642778">
        <ele>524</ele>
        <time>2010-01-01T00:11:28Z</time>
      </trkpt>
      <trkpt lat="48.231240436434746" lon="10.769036840647459">
        <ele>530</ele>
        <time>2010-01-01T00:11:32Z</time>
      </trkpt>
      <trkpt lat="48.231218559667468" lon="10.768938437104225">
        <ele>530</ele>
        <time>2010-01-01T00:11:35Z</time>
      </trkpt>
      <trkpt lat="48.231189725920558" lon="10.76874028891325">
        <ele>532</ele>
        <time>2010-01-01T00:11:40Z</time>
      </trkpt>
      <trkpt lat="48.23115661740303" lon="10.768473828211427">
        <ele>532</ele>
        <time>2010-01-01T00:11:47Z</time>
      </trkpt>
      <trkpt lat="48.23113507591188" lon="10.768288169056177">
        <ele>532</ele>
        <time>2010-01-01T00:11:52Z</time>
      </trkpt>
      <trkpt lat="48.231116384267807" lon="10.768165374174714">
        <ele>532</ele>
        <time>2010-01-01T00:11:56Z</time>
      </trkpt>
      <trkpt lat="48.231073385104537" lon="10.76801517046988">
        <ele>532</ele>
        <time>2010-01-01T00:12:00Z</time>
      </trkpt>
      <trkpt lat="48.230995768681169" lon="10.767736472189426">
        <ele>530</ele>
        <time>2010-01-01T00:12:08Z</time>
      </trkpt>
      <trkpt lat="48.230819413438439" lon="10.767188295722008">
        <ele>530</ele>
        <time>2010-01-01T00:12:24Z</time>
      </trkpt>
      <trkpt lat="48.230705922469497" lon="10.766861569136381">
        <ele>529</ele>
        <time>2010-01-01T00:12:34Z</time>
      </trkpt>
      <trkpt lat="48.230625204741955" lon="10.76666216365993">
        <ele>529</ele>
        <time>2010-01-01T00:12:40Z</time>
      </trkpt>
      <trkpt lat="48.230531914159656" lon="10.766416909173131">
        <ele>529</ele>
        <time>2010-01-01T00:12:48Z</time>
      </trkpt>
      <trkpt lat="48.230330413207412" lon="10.765902092680335">
        <ele>532</ele>
        <time>2010-01-01T00:13:04Z</time>
      </trkpt>
      <trkpt lat="48.230217089876533" lon="10.765629010275006">
        <ele>532</ele>
        <time>2010-01-01T00:13:13Z</time>
      </trkpt>
      <trkpt lat="48.230116758495569" lon="10.765379732474685">
        <ele>531</ele>
        <time>2010-01-01T00:13:20Z</time>
      </trkpt>
      <trkpt lat="48.230033777654171" lon="10.765198264271021">
        <ele>531</ele>
        <time>2010-01-01T00:13:26Z</time>
      </trkpt>
      <trkpt lat="48.229973763227463" lon="10.765076307579875">
        <ele>531</ele>
        <time>2010-01-01T00:13:30Z</time>
      </trkpt>
      <trkpt lat="48.229819871485233" lon="10.764717226848006">
        <ele>531</ele>
        <time>2010-01-01T00:13:42Z</time>
      </trkpt>
      <trkpt lat="48.229646701365709" lon="10.764363426715136">
        <ele>531</ele>
        <time>2010-01-01T00:13:53Z</time>
      </trkpt>
      <trkpt lat="48.229553326964378" lon="10.764170140028">
        <ele>534</ele>
        <time>2010-01-01T00:14:00Z</time>
      </trkpt>
      <trkpt lat="48.229351490736008" lon="10.763748195022345">
        <ele>533</ele>
        <time>2010-01-01T00:14:14Z</time>
      </trkpt>
      <trkpt lat="48.229264821857214" lon="10.763602769002318">
        <ele>533</ele>
        <time>2010-01-01T00:14:19Z</time>
      </trkpt>
      <trkpt lat="48.229229198768735" lon="10.763564212247729">
        <ele>533</ele>
        <time>2010-01-01T00:14:20Z</time>
      </trkpt>
      <trkpt lat="48.229192066937685" lon="10.763510568067431">
        <ele>533</ele>
        <time>2010-01-01T00:14:23Z</time>
      </trkpt>
      <trkpt lat="48.229162059724331" lon="10.763439573347569">
        <ele>533</ele>
        <time>2010-01-01T00:14:25Z</time>
      </trkpt>
      <trkpt lat="48.229111935943365" lon="10.763314515352249">
        <ele>533</ele>
        <time>2010-01-01T00:14:29Z</time>
      </trkpt>
      <trkpt lat="48.229075977578759" lon="10.763236815109849">
        <ele>533</ele>
        <time>2010-01-01T00:14:31Z</time>
      </trkpt>
      <trkpt lat="48.229028703644872" lon="10.763165485113859">
        <ele>533</ele>
        <time>2010-01-01T00:14:34Z</time>
      </trkpt>
      <trkpt lat="48.228964582085609" lon="10.763058783486485">
        <ele>533</ele>
        <time>2010-01-01T00:14:38Z</time>
      </trkpt>
      <trkpt lat="48.228764086961746" lon="10.76269056648016">
        <ele>529</ele>
        <time>2010-01-01T00:14:50Z</time>
      </trkpt>
      <trkpt lat="48.228714130818844" lon="10.762596521526575">
        <ele>534</ele>
        <time>2010-01-01T00:14:54Z</time>
      </trkpt>
      <trkpt lat="48.228641459718347" lon="10.762461572885513">
        <ele>534</ele>
        <time>2010-01-01T00:14:58Z</time>
      </trkpt>
      <trkpt lat="48.228575997054577" lon="10.762337185442448">
        <ele>534</ele>
        <time>2010-01-01T00:15:02Z</time>
      </trkpt>
      <trkpt lat="48.228514641523361" lon="10.762203494086862">
        <ele>534</ele>
        <time>2010-01-01T00:15:07Z</time>
      </trkpt>
      <trkpt lat="48.228445909917355" lon="10.762093188241124">
        <ele>534</ele>
        <time>2010-01-01T00:15:11Z</time>
      </trkpt>
      <trkpt lat="48.228389918804169" lon="10.76200651936233">
        <ele>530</ele>
        <time>2010-01-01T00:15:14Z</time>
      </trkpt>
      <trkpt lat="48.228342393413186" lon="10.761908702552319">
        <ele>530</ele>
        <time>2010-01-01T00:15:17Z</time>
      </trkpt>
      <trkpt lat="48.228297717869282" lon="10.761841228231788">
        <ele>530</ele>
        <time>2010-01-01T00:15:20Z</time>
      </trkpt>
      <trkpt lat="48.228265615180135" lon="10.761777358129621">
        <ele>530</ele>
        <time>2010-01-01T00:15:22Z</time>
      </trkpt>
      <trkpt lat="48.228235440328717" lon="10.761745003983378">
        <ele>530</ele>
        <time>2010-01-01T00:15:23Z</time>
      </trkpt>
      <trkpt lat="48.228212390094995" lon="10.761723462492228">
        <ele>530</ele>
        <time>2010-01-01T00:15:24Z</time>
      </trkpt>
      <trkpt lat="48.228190932422876" lon="10.761712733656168">
        <ele>530</ele>
        <time>2010-01-01T00:15:25Z</time>
      </trkpt>
      <trkpt lat="48.228163607418537" lon="10.761712733656168">
        <ele>530</ele>
        <time>2010-01-01T00:15:26Z</time>
      </trkpt>
      <trkpt lat="48.228141982108355" lon="10.761719103902578">
        <ele>530</ele>
        <time>2010-01-01T00:15:27Z</time>
      </trkpt>
      <trkpt lat="48.228116165846586" lon="10.761727737262845">
        <ele>530</ele>
        <time>2010-01-01T00:15:28Z</time>
      </trkpt>
      <trkpt lat="48.228091774508357" lon="10.761723378673196">
        <ele>530</ele>
        <time>2010-01-01T00:15:29Z</time>
      </trkpt>
      <trkpt lat="48.228081716224551" lon="10.761695383116603">
        <ele>530</ele>
        <time>2010-01-01T00:15:30Z</time>
      </trkpt>
      <trkpt lat="48.228078782558441" lon="10.761665208265185">
        <ele>530</ele>
        <time>2010-01-01T00:15:31Z</time>
      </trkpt>
      <trkpt lat="48.22811046615243" lon="10.761602679267526">
        <ele>530</ele>
        <time>2010-01-01T00:15:33Z</time>
      </trkpt>
      <trkpt lat="48.228579517453909" lon="10.76092760078609">
        <ele>529</ele>
        <time>2010-01-01T00:15:59Z</time>
      </trkpt>
      <trkpt lat="48.228596867993474" lon="10.760905724018812">
        <ele>529</ele>
        <time>2010-01-01T00:16:00Z</time>
      </trkpt>
      <trkpt lat="48.228601310402155" lon="10.760886110365391">
        <ele>529</ele>
        <time>2010-01-01T00:16:01Z</time>
      </trkpt>
      <trkpt lat="48.228601394221187" lon="10.760859875008464">
        <ele>529</ele>
        <time>2010-01-01T00:16:01Z</time>
      </trkpt>
      <trkpt lat="48.228589911013842" lon="10.760819474235177">
        <ele>529</ele>
        <time>2010-01-01T00:16:03Z</time>
      </trkpt>
      <trkpt lat="48.228575494140387" lon="10.760785778984427">
        <ele>529</ele>
        <time>2010-01-01T00:16:04Z</time>
      </trkpt>
      <trkpt lat="48.228546576574445" lon="10.760748898610473">
        <ele>529</ele>
        <time>2010-01-01T00:16:05Z</time>
      </trkpt>
      <trkpt lat="48.228454208001494" lon="10.760644627735019">
        <ele>529</ele>
        <time>2010-01-01T00:16:10Z</time>
      </trkpt>
      <trkpt lat="48.228316912427545" lon="10.760485958307981">
        <ele>529</ele>
        <time>2010-01-01T00:16:17Z</time>
      </trkpt>
      <trkpt lat="48.228256981819868" lon="10.76041110791266">
        <ele>528</ele>
        <time>2010-01-01T00:16:20Z</time>
      </trkpt>
      <trkpt lat="48.227810310199857" lon="10.759806521236897">
        <ele>529</ele>
        <time>2010-01-01T00:16:44Z</time>
      </trkpt>
      <trkpt lat="48.227704614400864" lon="10.759678110480309">
        <ele>529</ele>
        <time>2010-01-01T00:16:49Z</time>
      </trkpt>
      <trkpt lat="48.22739808820188" lon="10.759288771077991">
        <ele>528</ele>
        <time>2010-01-01T00:17:05Z</time>
      </trkpt>
      <trkpt lat="48.227259116247296" lon="10.759123396128416">
        <ele>528</ele>
        <time>2010-01-01T00:17:12Z</time>
      </trkpt>
      <trkpt lat="48.227151911705732" lon="10.758968666195869">
        <ele>528</ele>
        <time>2010-01-01T00:17:18Z</time>
      </trkpt>
      <trkpt lat="48.227050574496388" lon="10.758818965405226">
        <ele>529</ele>
        <time>2010-01-01T00:17:24Z</time>
      </trkpt>
      <trkpt lat="48.22703012265265" lon="10.758768506348133">
        <ele>529</ele>
        <time>2010-01-01T00:17:26Z</time>
      </trkpt>
      <trkpt lat="48.227001205086708" lon="10.758705474436283">
        <ele>528</ele>
        <time>2010-01-01T00:17:28Z</time>
      </trkpt>
      <trkpt lat="48.226959211751819" lon="10.758642526343465">
        <ele>528</ele>
        <time>2010-01-01T00:17:30Z</time>
      </trkpt>
      <trkpt lat="48.226921493187547" lon="10.758605562150478">
        <ele>528</ele>
        <time>2010-01-01T00:17:32Z</time>
      </trkpt>
      <trkpt lat="48.226857790723443" lon="10.75854261405766">
        <ele>528</ele>
        <time>2010-01-01T00:17:35Z</time>
      </trkpt>
      <trkpt lat="48.226724602282047" lon="10.758431637659669">
        <ele>528</ele>
        <time>2010-01-01T00:17:41Z</time>
      </trkpt>
      <trkpt lat="48.226575488224626" lon="10.758272968232632">
        <ele>528</ele>
        <time>2010-01-01T00:17:48Z</time>
      </trkpt>
      <trkpt lat="48.226412460207939" lon="10.758060989901423">
        <ele>528</ele>
        <time>2010-01-01T00:17:57Z</time>
      </trkpt>
      <trkpt lat="48.226067880168557" lon="10.757634099572897">
        <ele>529</ele>
        <time>2010-01-01T00:18:15Z</time>
      </trkpt>
      <trkpt lat="48.225830085575581" lon="10.757365459576249">
        <ele>529</ele>
        <time>2010-01-01T00:18:27Z</time>
      </trkpt>
      <trkpt lat="48.225632691755891" lon="10.757180722430348">
        <ele>529</ele>
        <time>2010-01-01T00:18:36Z</time>
      </trkpt>
      <trkpt lat="48.22551928460598" lon="10.757088605314493">
        <ele>529</ele>
        <time>2010-01-01T00:18:41Z</time>
      </trkpt>
      <trkpt lat="48.225462036207318" lon="10.75705231167376">
        <ele>530</ele>
        <time>2010-01-01T00:18:44Z</time>
      </trkpt>
      <trkpt lat="48.225427586585283" lon="10.757016018033028">
        <ele>530</ele>
        <time>2010-01-01T00:18:45Z</time>
      </trkpt>
      <trkpt lat="48.225329266861081" lon="10.756856594234705">
        <ele>533</ele>
        <time>2010-01-01T00:18:51Z</time>
      </trkpt>
      <trkpt lat="48.22484252974391" lon="10.756232058629394">
        <ele>534</ele>
        <time>2010-01-01T00:19:17Z</time>
      </trkpt>
      <trkpt lat="48.224536590278149" lon="10.755871133878827">
        <ele>531</ele>
        <time>2010-01-01T00:19:32Z</time>
      </trkpt>
      <trkpt lat="48.224321762099862" lon="10.755592435598373">
        <ele>531</ele>
        <time>2010-01-01T00:19:44Z</time>
      </trkpt>
      <trkpt lat="48.224287563934922" lon="10.755517082288861">
        <ele>531</ele>
        <time>2010-01-01T00:19:46Z</time>
      </trkpt>
      <trkpt lat="48.224280523136258" lon="10.755441728979349">
        <ele>531</ele>
        <time>2010-01-01T00:19:48Z</time>
      </trkpt>
      <trkpt lat="48.224269123747945" lon="10.755372662097216">
        <ele>530</ele>
        <time>2010-01-01T00:19:50Z</time>
      </trkpt>
      <trkpt lat="48.224250515922904" lon="10.755312312394381">
        <ele>530</ele>
        <time>2010-01-01T00:19:52Z</time>
      </trkpt>
      <trkpt lat="48.224204834550619" lon="10.755221368744969">
        <ele>530</ele>
        <time>2010-01-01T00:19:55Z</time>
      </trkpt>
      <trkpt lat="48.22391607798636" lon="10.754853738471866">
        <ele>530</ele>
        <time>2010-01-01T00:20:10Z</time>
      </trkpt>
      <trkpt lat="48.223598906770349" lon="10.754466997459531">
        <ele>530</ele>
        <time>2010-01-01T00:20:27Z</time>
      </trkpt>
      <trkpt lat="48.223356669768691" lon="10.754127614200115">
        <ele>530</ele>
        <time>2010-01-01T00:20:40Z</time>
      </trkpt>
      <trkpt lat="48.223165897652507" lon="10.753870960325003">
        <ele>530</ele>
        <time>2010-01-01T00:20:50Z</time>
      </trkpt>
      <trkpt lat="48.222909662872553" lon="10.753566529601812">
        <ele>530</ele>
        <time>2010-01-01T00:21:03Z</time>
      </trkpt>
      <trkpt lat="48.222357127815485" lon="10.75287451967597">
        <ele>529</ele>
        <time>2010-01-01T00:21:32Z</time>
      </trkpt>
      <trkpt lat="48.222171384841204" lon="10.752643095329404">
        <ele>529</ele>
        <time>2010-01-01T00:21:42Z</time>
      </trkpt>
      <trkpt lat="48.221920598298311" lon="10.752314608544111">
        <ele>531</ele>
        <time>2010-01-01T00:21:55Z</time>
      </trkpt>
      <trkpt lat="48.221690263599157" lon="10.751990480348468">
        <ele>530</ele>
        <time>2010-01-01T00:22:08Z</time>
      </trkpt>
      <trkpt lat="48.22153352200985" lon="10.751768024638295">
        <ele>530</ele>
        <time>2010-01-01T00:22:16Z</time>
      </trkpt>
      <trkpt lat="48.221341576427221" lon="10.751516399905086">
        <ele>530</ele>
        <time>2010-01-01T00:22:26Z</time>
      </trkpt>
      <trkpt lat="48.220964893698692" lon="10.751051874831319">
        <ele>530</ele>
        <time>2010-01-01T00:22:46Z</time>
      </trkpt>
      <trkpt lat="48.220699187368155" lon="10.75070939026773">
        <ele>530</ele>
        <time>2010-01-01T00:23:00Z</time>
      </trkpt>
      <trkpt lat="48.220538925379515" lon="10.750505458563566">
        <ele>530</ele>
        <time>2010-01-01T00:23:08Z</time>
      </trkpt>
      <trkpt lat="48.22041898034513" lon="10.750362211838365">
        <ele>530</ele>
        <time>2010-01-01T00:23:14Z</time>
      </trkpt>
      <trkpt lat="48.220349075272679" lon="10.750285182148218">
        <ele>532</ele>
        <time>2010-01-01T00:23:18Z</time>
      </trkpt>
      <trkpt lat="48.220297610387206" lon="10.750220809131861">
        <ele>532</ele>
        <time>2010-01-01T00:23:21Z</time>
      </trkpt>
      <trkpt lat="48.220211863517761" lon="10.750145791098475">
        <ele>532</ele>
        <time>2010-01-01T00:23:25Z</time>
      </trkpt>
      <trkpt lat="48.219965016469359" lon="10.749937333166599">
        <ele>532</ele>
        <time>2010-01-01T00:23:36Z</time>
      </trkpt>
      <trkpt lat="48.219802994281054" lon="10.749767012894154">
        <ele>532</ele>
        <time>2010-01-01T00:23:44Z</time>
      </trkpt>
      <trkpt lat="48.219284908846021" lon="10.749144237488508">
        <ele>534</ele>
        <time>2010-01-01T00:24:10Z</time>
      </trkpt>
      <trkpt lat="48.21906010620296" lon="10.748876770958304">
        <ele>534</ele>
        <time>2010-01-01T00:24:22Z</time>
      </trkpt>
      <trkpt lat="48.218663223087788" lon="10.748336892575026">
        <ele>534</ele>
        <time>2010-01-01T00:24:43Z</time>
      </trkpt>
      <trkpt lat="48.218487035483122" lon="10.748083172366023">
        <ele>534</ele>
        <time>2010-01-01T00:24:53Z</time>
      </trkpt>
      <trkpt lat="48.218136839568615" lon="10.7476198207587">
        <ele>535</ele>
        <time>2010-01-01T00:25:12Z</time>
      </trkpt>
      <trkpt lat="48.217986216768622" lon="10.747385378926992">
        <ele>535</ele>
        <time>2010-01-01T00:25:20Z</time>
      </trkpt>
      <trkpt lat="48.217821512371302" lon="10.747214304283261">
        <ele>534</ele>
        <time>2010-01-01T00:25:29Z</time>
      </trkpt>
      <trkpt lat="48.21749797090888" lon="10.746849104762077">
        <ele>535</ele>
        <time>2010-01-01T00:25:45Z</time>
      </trkpt>
      <trkpt lat="48.21728196926415" lon="10.74655557051301">
        <ele>535</ele>
        <time>2010-01-01T00:25:56Z</time>
      </trkpt>
      <trkpt lat="48.217206029221416" lon="10.746433110907674">
        <ele>535</ele>
        <time>2010-01-01T00:26:01Z</time>
      </trkpt>
      <trkpt lat="48.217145511880517" lon="10.746323391795158">
        <ele>535</ele>
        <time>2010-01-01T00:26:05Z</time>
      </trkpt>
      <trkpt lat="48.217093460261822" lon="10.746236890554428">
        <ele>540</ele>
        <time>2010-01-01T00:26:08Z</time>
      </trkpt>
      <trkpt lat="48.216982400044799" lon="10.746108312159777">
        <ele>533</ele>
        <time>2010-01-01T00:26:13Z</time>
      </trkpt>
      <trkpt lat="48.216672018170357" lon="10.745749901980162">
        <ele>533</ele>
        <time>2010-01-01T00:26:29Z</time>
      </trkpt>
      <trkpt lat="48.216165415942669" lon="10.745096616446972">
        <ele>534</ele>
        <time>2010-01-01T00:26:56Z</time>
      </trkpt>
      <trkpt lat="48.215952767059207" lon="10.744738541543484">
        <ele>534</ele>
        <time>2010-01-01T00:27:09Z</time>
      </trkpt>
      <trkpt lat="48.215864924713969" lon="10.74454240500927">
        <ele>539</ele>
        <time>2010-01-01T00:27:15Z</time>
      </trkpt>
      <trkpt lat="48.215526128187776" lon="10.743947122246027">
        <ele>539</ele>
        <time>2010-01-01T00:27:36Z</time>
      </trkpt>
      <trkpt lat="48.215333176776767" lon="10.743620563298464">
        <ele>536</ele>
        <time>2010-01-01T00:27:47Z</time>
      </trkpt>
      <trkpt lat="48.215265031903982" lon="10.743498941883445">
        <ele>536</ele>
        <time>2010-01-01T00:27:52Z</time>
      </trkpt>
      <trkpt lat="48.21524977684021" lon="10.743424091488123">
        <ele>536</ele>
        <time>2010-01-01T00:27:54Z</time>
      </trkpt>
      <trkpt lat="48.215245837345719" lon="10.743347983807325">
        <ele>536</ele>
        <time>2010-01-01T00:27:56Z</time>
      </trkpt>
      <trkpt lat="48.215244328603148" lon="10.743316719308496">
        <ele>536</ele>
        <time>2010-01-01T00:27:57Z</time>
      </trkpt>
      <trkpt lat="48.215231839567423" lon="10.743252178654075">
        <ele>536</ele>
        <time>2010-01-01T00:27:58Z</time>
      </trkpt>
      <trkpt lat="48.215183559805155" lon="10.743167018517852">
        <ele>536</ele>
        <time>2010-01-01T00:28:01Z</time>
      </trkpt>
      <trkpt lat="48.215057831257582" lon="10.742926960811019">
        <ele>536</ele>
        <time>2010-01-01T00:28:10Z</time>
      </trkpt>
      <trkpt lat="48.214924139901996" lon="10.742611885070801">
        <ele>536</ele>
        <time>2010-01-01T00:28:19Z</time>
      </trkpt>
      <trkpt lat="48.214890528470278" lon="10.742521695792675">
        <ele>536</ele>
        <time>2010-01-01T00:28:22Z</time>
      </trkpt>
      <trkpt lat="48.214850211516023" lon="10.742405438795686">
        <ele>536</ele>
        <time>2010-01-01T00:28:26Z</time>
      </trkpt>
      <trkpt lat="48.214816767722368" lon="10.742308041080832">
        <ele>536</ele>
        <time>2010-01-01T00:28:29Z</time>
      </trkpt>
      <trkpt lat="48.214808637276292" lon="10.742269903421402">
        <ele>536</ele>
        <time>2010-01-01T00:28:30Z</time>
      </trkpt>
      <trkpt lat="48.214789358898997" lon="10.742245092988014">
        <ele>536</ele>
        <time>2010-01-01T00:28:31Z</time>
      </trkpt>
      <trkpt lat="48.214748874306679" lon="10.742284571751952">
        <ele>536</ele>
        <time>2010-01-01T00:28:33Z</time>
      </trkpt>
      <trkpt lat="48.214557599276304" lon="10.742432093247771">
        <ele>537</ele>
        <time>2010-01-01T00:28:41Z</time>
      </trkpt>
      <trkpt lat="48.214371772482991" lon="10.742577016353607">
        <ele>537</ele>
        <time>2010-01-01T00:28:50Z</time>
      </trkpt>
      <trkpt lat="48.21424126625061" lon="10.742689585313201">
        <ele>537</ele>
        <time>2010-01-01T00:28:56Z</time>
      </trkpt>
      <trkpt lat="48.214202038943768" lon="10.742871975526214">
        <ele>537</ele>
        <time>2010-01-01T00:29:01Z</time>
      </trkpt>
      <trkpt lat="48.214144790545106" lon="10.742982029914856">
        <ele>539</ele>
        <time>2010-01-01T00:29:05Z</time>
      </trkpt>
      <trkpt lat="48.214098270982504" lon="10.743151009082794">
        <ele>539</ele>
        <time>2010-01-01T00:29:09Z</time>
      </trkpt>
      <trkpt lat="48.213911103084683" lon="10.74410067871213">
        <ele>541</ele>
        <time>2010-01-01T00:29:36Z</time>
      </trkpt>
      <trkpt lat="48.213698118925095" lon="10.745301470160484">
        <ele>539</ele>
        <time>2010-01-01T00:30:09Z</time>
      </trkpt>
      <trkpt lat="48.213481698185205" lon="10.746600329875946">
        <ele>535</ele>
        <time>2010-01-01T00:30:45Z</time>
      </trkpt>
      <trkpt lat="48.213331662118435" lon="10.747479340061545">
        <ele>536</ele>
        <time>2010-01-01T00:31:09Z</time>
      </trkpt>
      <trkpt lat="48.213183218613267" lon="10.748370504006743">
        <ele>535</ele>
        <time>2010-01-01T00:31:33Z</time>
      </trkpt>
      <trkpt lat="48.212913991883397" lon="10.750074964016676">
        <ele>534</ele>
        <time>2010-01-01T00:32:20Z</time>
      </trkpt>
      <trkpt lat="48.212776528671384" lon="10.75084819458425">
        <ele>533</ele>
        <time>2010-01-01T00:32:41Z</time>
      </trkpt>
      <trkpt lat="48.21264878846705" lon="10.75156501494348">
        <ele>534</ele>
        <time>2010-01-01T00:33:01Z</time>
      </trkpt>
      <trkpt lat="48.21259162388742" lon="10.75186550617218">
        <ele>534</ele>
        <time>2010-01-01T00:33:10Z</time>
      </trkpt>
      <trkpt lat="48.212555581703782" lon="10.752012860029936">
        <ele>534</ele>
        <time>2010-01-01T00:33:14Z</time>
      </trkpt>
      <trkpt lat="48.212516522035003" lon="10.752130961045623">
        <ele>534</ele>
        <time>2010-01-01T00:33:17Z</time>
      </trkpt>
      <trkpt lat="48.211939176544547" lon="10.753566026687622">
        <ele>535</ele>
        <time>2010-01-01T00:34:02Z</time>
      </trkpt>
      <trkpt lat="48.211747733876109" lon="10.753925358876586">
        <ele>535</ele>
        <time>2010-01-01T00:34:14Z</time>
      </trkpt>
      <trkpt lat="48.21117072366178" lon="10.754668414592743">
        <ele>534</ele>
        <time>2010-01-01T00:34:45Z</time>
      </trkpt>
      <trkpt lat="48.210834609344602" lon="10.755309378728271">
        <ele>534</ele>
        <time>2010-01-01T00:35:06Z</time>
      </trkpt>
      <trkpt lat="48.210520036518574" lon="10.755987977609038">
        <ele>535</ele>
        <time>2010-01-01T00:35:29Z</time>
      </trkpt>
      <trkpt lat="48.208332192152739" lon="10.760553097352386">
        <ele>539</ele>
        <time>2010-01-01T00:37:59Z</time>
      </trkpt>
      <trkpt lat="48.208213672041893" lon="10.760826515033841">
        <ele>539</ele>
        <time>2010-01-01T00:38:07Z</time>
      </trkpt>
      <trkpt lat="48.208232531324029" lon="10.761517435312271">
        <ele>538</ele>
        <time>2010-01-01T00:38:26Z</time>
      </trkpt>
      <trkpt lat="48.208263879641891" lon="10.763067835941911">
        <ele>538</ele>
        <time>2010-01-01T00:39:07Z</time>
      </trkpt>
      <trkpt lat="48.208232363685966" lon="10.763336475938559">
        <ele>538</ele>
        <time>2010-01-01T00:39:14Z</time>
      </trkpt>
      <trkpt lat="48.208119291812181" lon="10.763658760115504">
        <ele>538</ele>
        <time>2010-01-01T00:39:24Z</time>
      </trkpt>
      <trkpt lat="48.207593997940421" lon="10.764546906575561">
        <ele>538</ele>
        <time>2010-01-01T00:39:56Z</time>
      </trkpt>
      <trkpt lat="48.207343714311719" lon="10.764981508255005">
        <ele>539</ele>
        <time>2010-01-01T00:40:11Z</time>
      </trkpt>
      <trkpt lat="48.207471538335085" lon="10.76514788903296">
        <ele>539</ele>
        <time>2010-01-01T00:40:18Z</time>
      </trkpt>
      <trkpt lat="48.20762082003057" lon="10.765327513217926">
        <ele>539</ele>
        <time>2010-01-01T00:40:25Z</time>
      </trkpt>
      <trkpt lat="48.20793891325593" lon="10.765536725521088">
        <ele>541</ele>
        <time>2010-01-01T00:40:39Z</time>
      </trkpt>
      <trkpt lat="48.208364462479949" lon="10.765585508197546">
        <ele>541</ele>
        <time>2010-01-01T00:40:56Z</time>
      </trkpt>
      <trkpt lat="48.208546685054898" lon="10.76568148098886">
        <ele>541</ele>
        <time>2010-01-01T00:41:04Z</time>
      </trkpt>
      <trkpt lat="48.208816582337022" lon="10.76593897305429">
        <ele>537</ele>
        <time>2010-01-01T00:41:17Z</time>
      </trkpt>
      <trkpt lat="48.209332907572389" lon="10.766429901123047">
        <ele>538</ele>
        <time>2010-01-01T00:41:41Z</time>
      </trkpt>
      <trkpt lat="48.209524434059858" lon="10.766649758443236">
        <ele>538</ele>
        <time>2010-01-01T00:41:51Z</time>
      </trkpt>
      <trkpt lat="48.209651336073875" lon="10.76684832572937">
        <ele>536</ele>
        <time>2010-01-01T00:41:58Z</time>
      </trkpt>
      <trkpt lat="48.209808580577374" lon="10.766998529434204">
        <ele>536</ele>
        <time>2010-01-01T00:42:06Z</time>
      </trkpt>
      <trkpt lat="48.210371676832438" lon="10.767443692311645">
        <ele>537</ele>
        <time>2010-01-01T00:42:31Z</time>
      </trkpt>
      <trkpt lat="48.210764871910214" lon="10.767733370885253">
        <ele>535</ele>
        <time>2010-01-01T00:42:49Z</time>
      </trkpt>
      <trkpt lat="48.211086569353938" lon="10.76792917214334">
        <ele>536</ele>
        <time>2010-01-01T00:43:03Z</time>
      </trkpt>
      <trkpt lat="48.211447661742568" lon="10.768071413040161">
        <ele>535</ele>
        <time>2010-01-01T00:43:18Z</time>
      </trkpt>
      <trkpt lat="48.211996424943209" lon="10.768202841281891">
        <ele>535</ele>
        <time>2010-01-01T00:43:40Z</time>
      </trkpt>
      <trkpt lat="48.2123664021492" lon="10.768294036388397">
        <ele>538</ele>
        <time>2010-01-01T00:43:55Z</time>
      </trkpt>
      <trkpt lat="48.212704192847013" lon="10.768487071618438">
        <ele>538</ele>
        <time>2010-01-01T00:44:09Z</time>
      </trkpt>
      <trkpt lat="48.212895467877388" lon="10.76859712600708">
        <ele>538</ele>
        <time>2010-01-01T00:44:18Z</time>
      </trkpt>
      <trkpt lat="48.212972329929471" lon="10.768621182069182">
        <ele>535</ele>
        <time>2010-01-01T00:44:21Z</time>
      </trkpt>
      <trkpt lat="48.213077774271369" lon="10.768583714962006">
        <ele>535</ele>
        <time>2010-01-01T00:44:25Z</time>
      </trkpt>
      <trkpt lat="48.213190427049994" lon="10.768492519855499">
        <ele>535</ele>
        <time>2010-01-01T00:44:30Z</time>
      </trkpt>
      <trkpt lat="48.213245831429958" lon="10.768449604511261">
        <ele>535</ele>
        <time>2010-01-01T00:44:33Z</time>
      </trkpt>
      <trkpt lat="48.213717564940453" lon="10.768653368577361">
        <ele>535</ele>
        <time>2010-01-01T00:44:52Z</time>
      </trkpt>
      <trkpt lat="48.214039262384176" lon="10.768776834011078">
        <ele>534</ele>
        <time>2010-01-01T00:45:06Z</time>
      </trkpt>
      <trkpt lat="48.2143091596663" lon="10.768884122371674">
        <ele>534</ele>
        <time>2010-01-01T00:45:17Z</time>
      </trkpt>
      <trkpt lat="48.214436061680317" lon="10.768983280286193">
        <ele>534</ele>
        <time>2010-01-01T00:45:23Z</time>
      </trkpt>
      <trkpt lat="48.214577464386821" lon="10.76923917979002">
        <ele>534</ele>
        <time>2010-01-01T00:45:32Z</time>
      </trkpt>
      <trkpt lat="48.215115331113338" lon="10.770522868260741">
        <ele>534</ele>
        <time>2010-01-01T00:46:12Z</time>
      </trkpt>
      <trkpt lat="48.215354802086949" lon="10.771072804927826">
        <ele>534</ele>
        <time>2010-01-01T00:46:29Z</time>
      </trkpt>
      <trkpt lat="48.21549603715539" lon="10.771386623382568">
        <ele>533</ele>
        <time>2010-01-01T00:46:40Z</time>
      </trkpt>
      <trkpt lat="48.215799797326326" lon="10.771856009960175">
        <ele>533</ele>
        <time>2010-01-01T00:46:57Z</time>
      </trkpt>
      <trkpt lat="48.216066090390086" lon="10.772330677136779">
        <ele>533</ele>
        <time>2010-01-01T00:47:14Z</time>
      </trkpt>
      <trkpt lat="48.216393068432808" lon="10.772953033447266">
        <ele>532</ele>
        <time>2010-01-01T00:47:35Z</time>
      </trkpt>
      <trkpt lat="48.216578979045153" lon="10.773231899365783">
        <ele>532</ele>
        <time>2010-01-01T00:47:45Z</time>
      </trkpt>
      <trkpt lat="48.216770170256495" lon="10.773403560742736">
        <ele>532</ele>
        <time>2010-01-01T00:47:54Z</time>
      </trkpt>
      <trkpt lat="48.217043671756983" lon="10.773593997582793">
        <ele>532</ele>
        <time>2010-01-01T00:48:06Z</time>
      </trkpt>
      <trkpt lat="48.217713888734579" lon="10.773913180455565">
        <ele>533</ele>
        <time>2010-01-01T00:48:34Z</time>
      </trkpt>
      <trkpt lat="48.218048075214028" lon="10.774127840995789">
        <ele>533</ele>
        <time>2010-01-01T00:48:49Z</time>
      </trkpt>
      <trkpt lat="48.218643190339208" lon="10.774570405483246">
        <ele>533</ele>
        <time>2010-01-01T00:49:16Z</time>
      </trkpt>
      <trkpt lat="48.218995230272412" lon="10.774760758504272">
        <ele>532</ele>
        <time>2010-01-01T00:49:30Z</time>
      </trkpt>
      <trkpt lat="48.219216763973236" lon="10.774809122085571">
        <ele>532</ele>
        <time>2010-01-01T00:49:39Z</time>
      </trkpt>
      <trkpt lat="48.219549190253019" lon="10.774811804294586">
        <ele>532</ele>
        <time>2010-01-01T00:49:53Z</time>
      </trkpt>
      <trkpt lat="48.219990665093064" lon="10.774814402684569">
        <ele>533</ele>
        <time>2010-01-01T00:50:10Z</time>
      </trkpt>
      <trkpt lat="48.220290904864669" lon="10.774897634983063">
        <ele>533</ele>
        <time>2010-01-01T00:50:23Z</time>
      </trkpt>
      <trkpt lat="48.220474971458316" lon="10.774996792897582">
        <ele>532</ele>
        <time>2010-01-01T00:50:30Z</time>
      </trkpt>
      <trkpt lat="48.220673287287354" lon="10.77518186531961">
        <ele>532</ele>
        <time>2010-01-01T00:50:40Z</time>
      </trkpt>
      <trkpt lat="48.220814522355795" lon="10.77529720030725">
        <ele>532</ele>
        <time>2010-01-01T00:50:46Z</time>
      </trkpt>
      <trkpt lat="48.220989620313048" lon="10.775356208905578">
        <ele>532</ele>
        <time>2010-01-01T00:50:53Z</time>
      </trkpt>
      <trkpt lat="48.221143260598183" lon="10.775369703769684">
        <ele>532</ele>
        <time>2010-01-01T00:51:00Z</time>
      </trkpt>
      <trkpt lat="48.221413074061275" lon="10.775403063744307">
        <ele>535</ele>
        <time>2010-01-01T00:51:10Z</time>
      </trkpt>
      <trkpt lat="48.221893860027194" lon="10.775522505864501">
        <ele>533</ele>
        <time>2010-01-01T00:51:30Z</time>
      </trkpt>
      <trkpt lat="48.222331060096622" lon="10.775710176676512">
        <ele>531</ele>
        <time>2010-01-01T00:51:48Z</time>
      </trkpt>
      <trkpt lat="48.223032206296921" lon="10.776083087548614">
        <ele>532</ele>
        <time>2010-01-01T00:52:18Z</time>
      </trkpt>
      <trkpt lat="48.223325237631798" lon="10.776316523551941">
        <ele>532</ele>
        <time>2010-01-01T00:52:31Z</time>
      </trkpt>
      <trkpt lat="48.223741566762328" lon="10.776834106072783">
        <ele>532</ele>
        <time>2010-01-01T00:52:53Z</time>
      </trkpt>
      <trkpt lat="48.223814908415079" lon="10.776836788281798">
        <ele>531</ele>
        <time>2010-01-01T00:52:56Z</time>
      </trkpt>
      <trkpt lat="48.224031077697873" lon="10.776855563744903">
        <ele>531</ele>
        <time>2010-01-01T00:53:04Z</time>
      </trkpt>
      <trkpt lat="48.224252695217729" lon="10.7768315076828">
        <ele>531</ele>
        <time>2010-01-01T00:53:13Z</time>
      </trkpt>
      <trkpt lat="48.224477833136916" lon="10.776785910129547">
        <ele>531</ele>
        <time>2010-01-01T00:53:22Z</time>
      </trkpt>
      <trkpt lat="48.224861975759268" lon="10.77680460177362">
        <ele>532</ele>
        <time>2010-01-01T00:53:38Z</time>
      </trkpt>
      <trkpt lat="48.224922828376293" lon="10.776882385835052">
        <ele>532</ele>
        <time>2010-01-01T00:53:41Z</time>
      </trkpt>
      <trkpt lat="48.22494076564908" lon="10.777160916477442">
        <ele>532</ele>
        <time>2010-01-01T00:53:49Z</time>
      </trkpt>
      <trkpt lat="48.225016370415688" lon="10.777429640293121">
        <ele>532</ele>
        <time>2010-01-01T00:53:56Z</time>
      </trkpt>
      <trkpt lat="48.2251728605479" lon="10.777729963883758">
        <ele>532</ele>
        <time>2010-01-01T00:54:06Z</time>
      </trkpt>
      <trkpt lat="48.225301606580615" lon="10.777947306632996">
        <ele>534</ele>
        <time>2010-01-01T00:54:14Z</time>
      </trkpt>
      <trkpt lat="48.225371260195971" lon="10.778057193383574">
        <ele>534</ele>
        <time>2010-01-01T00:54:18Z</time>
      </trkpt>
      <trkpt lat="48.225465975701809" lon="10.778137659654021">
        <ele>533</ele>
        <time>2010-01-01T00:54:23Z</time>
      </trkpt>
      <trkpt lat="48.225530264899135" lon="10.778153836727142">
        <ele>533</ele>
        <time>2010-01-01T00:54:25Z</time>
      </trkpt>
      <trkpt lat="48.225588602945209" lon="10.778128104284406">
        <ele>533</ele>
        <time>2010-01-01T00:54:28Z</time>
      </trkpt>
      <trkpt lat="48.225701926276088" lon="10.778089379891753">
        <ele>533</ele>
        <time>2010-01-01T00:54:32Z</time>
      </trkpt>
      <trkpt lat="48.225918095558882" lon="10.778078734874725">
        <ele>533</ele>
        <time>2010-01-01T00:54:41Z</time>
      </trkpt>
      <trkpt lat="48.226155722513795" lon="10.777931213378906">
        <ele>533</ele>
        <time>2010-01-01T00:54:51Z</time>
      </trkpt>
      <trkpt lat="48.226300477981567" lon="10.777877485379577">
        <ele>531</ele>
        <time>2010-01-01T00:54:57Z</time>
      </trkpt>
      <trkpt lat="48.226422015577555" lon="10.777874803170562">
        <ele>531</ele>
        <time>2010-01-01T00:55:02Z</time>
      </trkpt>
      <trkpt lat="48.226552437990904" lon="10.778000866994262">
        <ele>533</ele>
        <time>2010-01-01T00:55:08Z</time>
      </trkpt>
      <trkpt lat="48.226761482656002" lon="10.778282498940825">
        <ele>533</ele>
        <time>2010-01-01T00:55:20Z</time>
      </trkpt>
      <trkpt lat="48.226965665817261" lon="10.778496488928795">
        <ele>533</ele>
        <time>2010-01-01T00:55:30Z</time>
      </trkpt>
      <trkpt lat="48.227091478183866" lon="10.778607213869691">
        <ele>530</ele>
        <time>2010-01-01T00:55:35Z</time>
      </trkpt>
      <trkpt lat="48.227101033553481" lon="10.778692876920104">
        <ele>530</ele>
        <time>2010-01-01T00:55:38Z</time>
      </trkpt>
      <trkpt lat="48.22707949206233" lon="10.778767978772521">
        <ele>532</ele>
        <time>2010-01-01T00:55:40Z</time>
      </trkpt>
      <trkpt lat="48.227046635001898" lon="10.778852300718427">
        <ele>532</ele>
        <time>2010-01-01T00:55:42Z</time>
      </trkpt>
      <trkpt lat="48.227004893124104" lon="10.778953973203897">
        <ele>532</ele>
        <time>2010-01-01T00:55:46Z</time>
      </trkpt>
      <trkpt lat="48.226948818191886" lon="10.779080539941788">
        <ele>532</ele>
        <time>2010-01-01T00:55:50Z</time>
      </trkpt>
      <trkpt lat="48.226893162354827" lon="10.77917349524796">
        <ele>532</ele>
        <time>2010-01-01T00:55:53Z</time>
      </trkpt>
      <trkpt lat="48.226825185120106" lon="10.779245160520077">
        <ele>532</ele>
        <time>2010-01-01T00:55:56Z</time>
      </trkpt>
      <trkpt lat="48.226753687486053" lon="10.77930836006999">
        <ele>532</ele>
        <time>2010-01-01T00:56:00Z</time>
      </trkpt>
      <trkpt lat="48.226700630038977" lon="10.7793303206563">
        <ele>532</ele>
        <time>2010-01-01T00:56:02Z</time>
      </trkpt>
      <trkpt lat="48.226643800735474" lon="10.779346665367484">
        <ele>532</ele>
        <time>2010-01-01T00:56:04Z</time>
      </trkpt>
      <trkpt lat="48.226592587307096" lon="10.779390586540103">
        <ele>532</ele>
        <time>2010-01-01T00:56:07Z</time>
      </trkpt>
      <trkpt lat="48.226559730246663" lon="10.77945931814611">
        <ele>532</ele>
        <time>2010-01-01T00:56:09Z</time>
      </trkpt>
      <trkpt lat="48.226537769660354" lon="10.779533414170146">
        <ele>532</ele>
        <time>2010-01-01T00:56:11Z</time>
      </trkpt>
      <trkpt lat="48.226505080237985" lon="10.779730724170804">
        <ele>532</ele>
        <time>2010-01-01T00:56:16Z</time>
      </trkpt>
      <trkpt lat="48.226451268419623" lon="10.780112603679299">
        <ele>532</ele>
        <time>2010-01-01T00:56:27Z</time>
      </trkpt>
      <trkpt lat="48.226444059982896" lon="10.780170690268278">
        <ele>532</ele>
        <time>2010-01-01T00:56:28Z</time>
      </trkpt>
      <trkpt lat="48.226443976163864" lon="10.780209917575121">
        <ele>532</ele>
        <time>2010-01-01T00:56:29Z</time>
      </trkpt>
      <trkpt lat="48.226449089124799" lon="10.780249480158091">
        <ele>532</ele>
        <time>2010-01-01T00:56:30Z</time>
      </trkpt>
      <trkpt lat="48.226464092731476" lon="10.780283510684967">
        <ele>532</ele>
        <time>2010-01-01T00:56:32Z</time>
      </trkpt>
      <trkpt lat="48.22651413269341" lon="10.780317792668939">
        <ele>532</ele>
        <time>2010-01-01T00:56:34Z</time>
      </trkpt>
      <trkpt lat="48.226685123518109" lon="10.780346794053912">
        <ele>532</ele>
        <time>2010-01-01T00:56:41Z</time>
      </trkpt>
      <trkpt lat="48.226726613938808" lon="10.780354421585798">
        <ele>532</ele>
        <time>2010-01-01T00:56:42Z</time>
      </trkpt>
      <trkpt lat="48.226715633645654" lon="10.780451567843556">
        <ele>535</ele>
        <time>2010-01-01T00:56:45Z</time>
      </trkpt>
      <trkpt lat="48.226974634453654" lon="10.780519964173436">
        <ele>535</ele>
        <time>2010-01-01T00:56:55Z</time>
      </trkpt>
      <trkpt lat="48.227207567542791" lon="10.780606884509325">
        <ele>535</ele>
        <time>2010-01-01T00:57:05Z</time>
      </trkpt>
      <trkpt lat="48.227378390729427" lon="10.780664719641209">
        <ele>535</ele>
        <time>2010-01-01T00:57:12Z</time>
      </trkpt>
      <trkpt lat="48.227385934442282" lon="10.780679639428854">
        <ele>535</ele>
        <time>2010-01-01T00:57:13Z</time>
      </trkpt>
      <trkpt lat="48.227422563359141" lon="10.780768906697631">
        <ele>535</ele>
        <time>2010-01-01T00:57:15Z</time>
      </trkpt>
    </trkseg>
  </trk>

</gpx>
